Terminal Aerodrome Forecast
Issued by NWS Portland, OR

Home | Current Version | Previous Version | Text Only | Print | Product List | Glossary On
Versions: 1 2 3 4 5 6 7 8 9 10 11 12 13 14 15 16 17
000
FTUS46 KPQR 241140
TAFEUG
TAF
KEUG 241140Z 2412/2512 18010KT P6SM -RA SCT020 OVC040
     FM241400 22011KT P6SM -SHRA BKN025 OVC045
     FM241800 26011G18KT P6SM -SHRA SCT025 BKN040 BKN060
     FM250100 22005KT P6SM SCT040 BKN060=

USA.gov is the U.S. government's official web portal to all federal, state and local government web resources and services.